KSBY/SBY METAR and TAF weather

Enter ICAO airport designator
Station Type Date Time Source
KSBY METAR 2019/05/25 14:54 UTC NOAA

KSBY 251454Z 13007KT 10SM FEW025 OVC075 22/15 A3023 RMK AO2 SLP238 T02170150 51004


Station Type Date Time Source
KSBY Decoded METAR 2019/05/25 14:54 UTC NOAA

SALISBURY-WICOMICO CTY REG, MD, United States (KSBY) 38-20N 075-30W 19M
May 25, 2019 - 10:54 AM EDT / 2019.05.25 1454 UTC
Wind: from the SE (130 degrees) at 8 MPH (7 KT):0
Visibility: 10 mile(s):0
Sky conditions: overcast
Temperature: 71.1 F (21.7 C)
Dew Point: 59.0 F (15.0 C)
Relative Humidity: 65%
Pressure (altimeter): 30.23 in. Hg (1023 hPa)
Pressure tendency: 0.01 inches (0.4 hPa) higher than three hours ago
ob: KSBY 251454Z 13007KT 10SM FEW025 OVC075 22/15 A3023 RMK AO2 SLP238 T02170150 51004
cycle: 15

Station Type Date Time Source
KSBY TAF 2019/05/25 12:22 UTC NOAA

TAF KSBY 251120Z 2512/2612 10006KT P6SM BKN080
FM251600 13009KT P6SM SCT060
FM252000 15011KT P6SM SCT100
FM260200 16010KT P6SM BKN090
FM260800 20007KT P6SM SCT200

Example: see airport list